Impacts TAF Board
For situational awareness. Not to be used for flight planning purposes.
IDs:

KIAH - Houston/Bush Intl, TX, US

Issued at 1250 UTC 18 Aug 2019
Updated at 1458 UTC 18 Aug 2019
Potential Impact None Slight Moderate High
Time1453Z 18/15Z 18/16Z 18/17Z 18/18Z 18/19Z 18/20Z 18/21Z 18/22Z 18/23Z 19/00Z 19/01Z 19/02Z 19/03Z>>
Type OBS PRVL PRVL PRVL PRVL PRVL PRVL PRVL PRVL PRVL PRVL PRVL PRVL PRVL
VIS 10 >6 >6 >6 >6 >6 >6 >6 >6 >6 >6 >6 >6 >6
CIG 250 -- 40 40 40 40 60 60 60 60 120 120 120 120
Cover BKN FEW BKN BKN BKN BKN BKN BKN BKN BKN BKN BKN BKN BKN
FltCat VFR VFR VFR VFR VFR VFR VFR VFR VFR VFR VFR VFR VFR VFR
WX -- VCSH VCSH VCSH VCSH VCSH VCTS VCTS VCTS VCTS -- -- -- --
WDir 190 170 190 190 190 190 160 160 160 160 150 150 150 150
WSpd 10 6 14 14 14 14 12 12 12 12 10 10 10 10
WGst -- -- -- -- -- -- -- -- -- -- -- -- -- --
Raw TAF
KIAH 181250Z 1813/1918 17006KT P6SM VCSH FEW020
  FM181600 19014KT P6SM VCSH BKN040
  FM182000 16012KT P6SM VCTS SCT045CB BKN060
  FM190000 15010KT P6SM FEW040 BKN120
  FM190400 17006KT P6SM SCT020 SCT250
  FM191200 16004KT P6SM BKN025


Raw METAR
KIAH 181453Z 19010KT 10SM FEW020 SCT034 SCT050 BKN250 31/26 A2993 RMK AO2 RAE1356 SLP133 P0000 60005 T03110256 51010 $
KIAH 181353Z 19006KT 9SM -RA FEW023 FEW035 SCT047 SCT130 29/26 A2992 RMK AO2 RAB42 SLP132 P0005 T02890261 $
KIAH 181253Z 17004KT 10SM FEW033 FEW045 SCT120 28/25 A2992 RMK AO2 SLP129 T02780250
KIAH 181153Z 17003KT 10SM FEW022 FEW034 26/24 A2990 RMK AO2 SLP123 T02610239 10283 20261 53001

METAR Board
Radar Display
Forecast Discussion
For situational awareness. Not to be used for flight planning purposes.